sensor_id;sensor_type;location;lat;lon;timestamp;pressure;altitude;pressure_sealevel;temperature;humidity
21109;BME280;10712;52.944;9.098;2022-10-03T00:01:42;102074.25;;;20.25;54.44
21109;BME280;10712;52.944;9.098;2022-10-03T00:07:31;102079.03;;;20.21;54.74
21109;BME280;10712;52.944;9.098;2022-10-03T00:10:16;102075.47;;;20.21;54.48
21109;BME280;10712;52.944;9.098;2022-10-03T00:12:55;102083.84;;;20.18;54.58
21109;BME280;10712;52.944;9.098;2022-10-03T00:15:49;102083.94;;;20.16;54.53
21109;BME280;10712;52.944;9.098;2022-10-03T00:22:24;102095.75;;;20.15;54.84
21109;BME280;10712;52.944;9.098;2022-10-03T00:24:53;102095.75;;;20.15;54.82
21109;BME280;10712;52.944;9.098;2022-10-03T00:36:01;102095.63;;;20.17;54.65
21109;BME280;10712;52.944;9.098;2022-10-03T00:39:13;102093.03;;;20.15;54.68
21109;BME280;10712;52.944;9.098;2022-10-03T00:42:32;102100.66;;;20.10;54.45
21109;BME280;10712;52.944;9.098;2022-10-03T00:45:45;102103.38;;;20.10;54.53
21109;BME280;10712;52.944;9.098;2022-10-03T00:48:29;102108.88;;;20.09;54.74
21109;BME280;10712;52.944;9.098;2022-10-03T01:00:19;102117.06;;;19.96;54.46
21109;BME280;10712;52.944;9.098;2022-10-03T01:05:30;102111.88;;;19.93;54.53
21109;BME280;10712;52.944;9.098;2022-10-03T01:14:22;102122.19;;;19.64;55.33
21109;BME280;10712;52.944;9.098;2022-10-03T01:17:07;102120.44;;;19.76;55.19
21109;BME280;10712;52.944;9.098;2022-10-03T01:21:13;102114.78;;;19.79;54.98
21109;BME280;10712;52.944;9.098;2022-10-03T01:26:44;102118.69;;;19.75;54.85
21109;BME280;10712;52.944;9.098;2022-10-03T01:30:18;102122.63;;;19.71;54.95
21109;BME280;10712;52.944;9.098;2022-10-03T01:32:49;102126.31;;;19.70;55.12
21109;BME280;10712;52.944;9.098;2022-10-03T01:38:48;102130.75;;;19.58;55.28
21109;BME280;10712;52.944;9.098;2022-10-03T01:42:05;102125.25;;;19.59;55.34
21109;BME280;10712;52.944;9.098;2022-10-03T01:44:59;102134.94;;;19.75;54.93
21109;BME280;10712;52.944;9.098;2022-10-03T01:50:29;102134.94;;;19.75;54.90
21109;BME280;10712;52.944;9.098;2022-10-03T01:53:28;102144.00;;;19.74;55.03
21109;BME280;10712;52.944;9.098;2022-10-03T01:56:23;102141.09;;;19.77;54.93
21109;BME280;10712;52.944;9.098;2022-10-03T02:04:41;102161.72;;;19.78;54.97
21109;BME280;10712;52.944;9.098;2022-10-03T02:08:00;102168.69;;;19.69;55.28
21109;BME280;10712;52.944;9.098;2022-10-03T02:16:44;102186.00;;;19.66;55.52
21109;BME280;10712;52.944;9.098;2022-10-03T02:19:35;102176.91;;;19.67;55.67
21109;BME280;10712;52.944;9.098;2022-10-03T02:25:23;102176.47;;;19.74;55.55
21109;BME280;10712;52.944;9.098;2022-10-03T02:28:22;102180.91;;;19.75;55.92
21109;BME280;10712;52.944;9.098;2022-10-03T02:39:54;102188.03;;;19.76;55.63
21109;BME280;10712;52.944;9.098;2022-10-03T02:45:50;102195.44;;;19.85;55.15
21109;BME280;10712;52.944;9.098;2022-10-03T03:09:52;102208.91;;;19.74;55.70
21109;BME280;10712;52.944;9.098;2022-10-03T03:12:47;102208.91;;;19.74;55.58
21109;BME280;10712;52.944;9.098;2022-10-03T03:18:45;102219.22;;;19.69;55.83
21109;BME280;10712;52.944;9.098;2022-10-03T03:30:10;102211.56;;;19.62;55.96
21109;BME280;10712;52.944;9.098;2022-10-03T03:39:32;102213.56;;;19.72;55.84
21109;BME280;10712;52.944;9.098;2022-10-03T03:45:27;102224.09;;;19.63;55.79
21109;BME280;10712;52.944;9.098;2022-10-03T03:48:26;102212.53;;;19.61;55.74
21109;BME280;10712;52.944;9.098;2022-10-03T03:57:29;102217.63;;;19.53;55.49
21109;BME280;10712;52.944;9.098;2022-10-03T04:02:57;102223.47;;;19.47;55.60
21109;BME280;10712;52.944;9.098;2022-10-03T04:35:24;102256.22;;;19.55;55.00
21109;BME280;10712;52.944;9.098;2022-10-03T04:38:08;102254.50;;;19.54;55.11
21109;BME280;10712;52.944;9.098;2022-10-03T04:41:01;102257.19;;;19.54;55.19
21109;BME280;10712;52.944;9.098;2022-10-03T04:47:13;102269.09;;;19.52;55.04
21109;BME280;10712;52.944;9.098;2022-10-03T04:49:53;102268.00;;;19.54;55.14
21109;BME280;10712;52.944;9.098;2022-10-03T04:52:37;102257.97;;;19.56;55.05
21109;BME280;10712;52.944;9.098;2022-10-03T04:55:29;102269.50;;;19.58;55.10
21109;BME280;10712;52.944;9.098;2022-10-03T05:01:09;102265.22;;;19.56;55.28
21109;BME280;10712;52.944;9.098;2022-10-03T05:03:48;102267.56;;;19.60;55.07
21109;BME280;10712;52.944;9.098;2022-10-03T05:06:49;102272.31;;;19.57;55.10
21109;BME280;10712;52.944;9.098;2022-10-03T05:18:17;102274.38;;;19.53;55.34
21109;BME280;10712;52.944;9.098;2022-10-03T05:27:35;102281.38;;;19.43;55.24
21109;BME280;10712;52.944;9.098;2022-10-03T05:30:19;102289.38;;;19.45;55.12
21109;BME280;10712;52.944;9.098;2022-10-03T05:39:27;102297.44;;;19.46;55.24
21109;BME280;10712;52.944;9.098;2022-10-03T05:45:31;102298.38;;;19.45;55.50
21109;BME280;10712;52.944;9.098;2022-10-03T05:48:40;102297.22;;;19.49;55.32
21109;BME280;10712;52.944;9.098;2022-10-03T05:52:02;102302.63;;;19.49;55.32
21109;BME280;10712;52.944;9.098;2022-10-03T05:54:43;102310.59;;;19.51;55.46
21109;BME280;10712;52.944;9.098;2022-10-03T05:57:59;102300.66;;;19.51;55.60
21109;BME280;10712;52.944;9.098;2022-10-03T06:15:17;102313.88;;;19.56;55.53
21109;BME280;10712;52.944;9.098;2022-10-03T06:17:59;102309.34;;;19.56;55.55
21109;BME280;10712;52.944;9.098;2022-10-03T06:23:31;102309.97;;;19.47;55.57
21109;BME280;10712;52.944;9.098;2022-10-03T06:26:26;102312.13;;;19.42;56.10
21109;BME280;10712;52.944;9.098;2022-10-03T06:48:30;102331.59;;;19.47;56.03
21109;BME280;10712;52.944;9.098;2022-10-03T06:51:29;102336.78;;;19.50;56.11
21109;BME280;10712;52.944;9.098;2022-10-03T07:15:46;102344.56;;;19.80;56.60
21109;BME280;10712;52.944;9.098;2022-10-03T07:25:14;102348.44;;;19.89;56.33
21109;BME280;10712;52.944;9.098;2022-10-03T07:49:42;102368.50;;;20.35;56.46
21109;BME280;10712;52.944;9.098;2022-10-03T07:52:49;102371.50;;;20.43;56.41
21109;BME280;10712;52.944;9.098;2022-10-03T07:55:56;102371.06;;;20.50;56.53
21109;BME280;10712;52.944;9.098;2022-10-03T07:58:55;102378.81;;;20.67;56.31
21109;BME280;10712;52.944;9.098;2022-10-03T08:17:14;102381.13;;;20.95;55.85
21109;BME280;10712;52.944;9.098;2022-10-03T08:26:03;102389.16;;;21.20;55.95
21109;BME280;10712;52.944;9.098;2022-10-03T08:35:26;102395.25;;;21.35;55.93
21109;BME280;10712;52.944;9.098;2022-10-03T08:52:46;102405.06;;;21.71;55.59
21109;BME280;10712;52.944;9.098;2022-10-03T08:56:11;102413.22;;;21.82;55.12
21109;BME280;10712;52.944;9.098;2022-10-03T08:59:13;102411.09;;;21.86;54.67
21109;BME280;10712;52.944;9.098;2022-10-03T09:09:11;102403.16;;;22.18;53.89
21109;BME280;10712;52.944;9.098;2022-10-03T09:51:33;102402.00;;;23.29;50.32
21109;BME280;10712;52.944;9.098;2022-10-03T09:57:18;102400.81;;;23.22;49.99
21109;BME280;10712;52.944;9.098;2022-10-03T10:00:14;102402.25;;;23.26;49.77
21109;BME280;10712;52.944;9.098;2022-10-03T10:03:25;102405.44;;;23.31;49.81
21109;BME280;10712;52.944;9.098;2022-10-03T10:15:53;102395.50;;;23.41;49.01
21109;BME280;10712;52.944;9.098;2022-10-03T10:25:31;102407.00;;;23.65;49.05
21109;BME280;10712;52.944;9.098;2022-10-03T10:38:02;102395.50;;;23.82;47.92
21109;BME280;10712;52.944;9.098;2022-10-03T11:08:37;102384.88;;;24.50;46.36
21109;BME280;10712;52.944;9.098;2022-10-03T11:14:55;102386.56;;;24.31;45.86
21109;BME280;10712;52.944;9.098;2022-10-03T11:38:46;102364.91;;;24.30;45.72
21109;BME280;10712;52.944;9.098;2022-10-03T11:41:46;102370.31;;;24.20;45.94
21109;BME280;10712;52.944;9.098;2022-10-03T11:44:32;102371.66;;;24.36;45.32
21109;BME280;10712;52.944;9.098;2022-10-03T11:55:44;102374.06;;;24.19;45.44
21109;BME280;10712;52.944;9.098;2022-10-03T12:04:43;102363.03;;;24.30;45.69
21109;BME280;10712;52.944;9.098;2022-10-03T12:07:43;102365.53;;;24.53;45.52
21109;BME280;10712;52.944;9.098;2022-10-03T12:10:57;102366.56;;;24.81;45.42
21109;BME280;10712;52.944;9.098;2022-10-03T12:16:26;102357.69;;;24.98;44.84
21109;BME280;10712;52.944;9.098;2022-10-03T12:19:12;102363.88;;;24.90;44.96
21109;BME280;10712;52.944;9.098;2022-10-03T12:21:58;102363.41;;;24.85;44.62
21109;BME280;10712;52.944;9.098;2022-10-03T12:24:31;102367.28;;;24.73;44.79
21109;BME280;10712;52.944;9.098;2022-10-03T12:30:03;102378.59;;;24.59;45.03
21109;BME280;10712;52.944;9.098;2022-10-03T12:35:39;102370.81;;;24.45;45.00
21109;BME280;10712;52.944;9.098;2022-10-03T12:38:25;102378.28;;;24.43;45.30
21109;BME280;10712;52.944;9.098;2022-10-03T12:56:14;102361.25;;;24.60;45.71
21109;BME280;10712;52.944;9.098;2022-10-03T12:58:52;102363.41;;;24.66;45.79
21109;BME280;10712;52.944;9.098;2022-10-03T13:01:32;102361.13;;;24.81;46.15
21109;BME280;10712;52.944;9.098;2022-10-03T13:07:19;102356.81;;;24.88;45.58
21109;BME280;10712;52.944;9.098;2022-10-03T13:21:21;102365.16;;;24.86;44.88
21109;BME280;10712;52.944;9.098;2022-10-03T13:29:41;102369.44;;;24.79;45.08
21109;BME280;10712;52.944;9.098;2022-10-03T13:32:30;102366.28;;;24.84;44.81
21109;BME280;10712;52.944;9.098;2022-10-03T13:38:07;102362.88;;;24.91;45.26
21109;BME280;10712;52.944;9.098;2022-10-03T13:40:46;102361.88;;;24.92;45.54
21109;BME280;10712;52.944;9.098;2022-10-03T13:43:21;102360.56;;;24.87;45.52
21109;BME280;10712;52.944;9.098;2022-10-03T13:45:52;102358.53;;;24.79;45.93
21109;BME280;10712;52.944;9.098;2022-10-03T13:48:25;102361.09;;;24.71;45.87
21109;BME280;10712;52.944;9.098;2022-10-03T13:54:13;102366.69;;;24.60;46.10
21109;BME280;10712;52.944;9.098;2022-10-03T13:56:49;102357.09;;;24.65;45.76
21109;BME280;10712;52.944;9.098;2022-10-03T13:59:46;102350.78;;;24.65;46.33
21109;BME280;10712;52.944;9.098;2022-10-03T14:02:58;102352.19;;;24.69;46.42
21109;BME280;10712;52.944;9.098;2022-10-03T14:06:02;102349.66;;;24.67;46.22
21109;BME280;10712;52.944;9.098;2022-10-03T14:08:58;102346.06;;;24.67;46.62
21109;BME280;10712;52.944;9.098;2022-10-03T14:17:47;102351.66;;;24.75;45.20
21109;BME280;10712;52.944;9.098;2022-10-03T14:23:31;102347.31;;;24.63;44.61
21109;BME280;10712;52.944;9.098;2022-10-03T14:26:19;102350.34;;;24.60;44.85
21109;BME280;10712;52.944;9.098;2022-10-03T14:31:47;102343.00;;;24.51;45.43
21109;BME280;10712;52.944;9.098;2022-10-03T14:34:40;102337.56;;;24.51;45.28
21109;BME280;10712;52.944;9.098;2022-10-03T14:37:59;102339.56;;;24.49;45.49
21109;BME280;10712;52.944;9.098;2022-10-03T14:43:48;102341.84;;;24.44;45.95
21109;BME280;10712;52.944;9.098;2022-10-03T14:46:26;102345.00;;;24.49;45.70
21109;BME280;10712;52.944;9.098;2022-10-03T14:49:05;102344.31;;;24.47;45.69
21109;BME280;10712;52.944;9.098;2022-10-03T14:51:55;102337.13;;;24.46;46.11
21109;BME280;10712;52.944;9.098;2022-10-03T14:54:29;102330.69;;;24.47;46.12
21109;BME280;10712;52.944;9.098;2022-10-03T14:56:57;102334.09;;;24.49;46.44
21109;BME280;10712;52.944;9.098;2022-10-03T14:59:32;102334.41;;;24.46;46.66
21109;BME280;10712;52.944;9.098;2022-10-03T15:02:47;102335.13;;;24.48;46.46
21109;BME280;10712;52.944;9.098;2022-10-03T15:04:51;102334.09;;;24.49;46.44
21109;BME280;10712;52.944;9.098;2022-10-03T15:07:37;102332.69;;;24.45;46.67
21109;BME280;10712;52.944;9.098;2022-10-03T15:10:11;102332.84;;;24.53;46.60
21109;BME280;10712;52.944;9.098;2022-10-03T15:12:43;102321.22;;;24.51;46.18
21109;BME280;10712;52.944;9.098;2022-10-03T15:15:30;102334.69;;;24.43;46.46
21109;BME280;10712;52.944;9.098;2022-10-03T15:18:02;102328.22;;;24.44;46.62
21109;BME280;10712;52.944;9.098;2022-10-03T15:20:36;102325.94;;;24.39;46.22
21109;BME280;10712;52.944;9.098;2022-10-03T15:23:26;102324.34;;;24.37;46.17
21109;BME280;10712;52.944;9.098;2022-10-03T15:25:56;102320.88;;;24.34;46.42
21109;BME280;10712;52.944;9.098;2022-10-03T15:28:44;102325.16;;;24.27;46.79
21109;BME280;10712;52.944;9.098;2022-10-03T15:31:35;102329.47;;;24.20;46.85
21109;BME280;10712;52.944;9.098;2022-10-03T15:36:58;102314.25;;;24.18;46.82
21109;BME280;10712;52.944;9.098;2022-10-03T15:39:36;102305.22;;;24.17;46.69
21109;BME280;10712;52.944;9.098;2022-10-03T15:44:38;102316.66;;;24.11;46.81
21109;BME280;10712;52.944;9.098;2022-10-03T15:47:32;102316.22;;;24.06;46.99
21109;BME280;10712;52.944;9.098;2022-10-03T15:52:40;102311.91;;;24.04;47.55
21109;BME280;10712;52.944;9.098;2022-10-03T15:55:26;102309.88;;;23.96;47.63
21109;BME280;10712;52.944;9.098;2022-10-03T15:58:07;102313.59;;;23.95;47.82
21109;BME280;10712;52.944;9.098;2022-10-03T16:00:37;102309.31;;;23.92;47.95
21109;BME280;10712;52.944;9.098;2022-10-03T16:03:27;102309.56;;;23.89;48.42
21109;BME280;10712;52.944;9.098;2022-10-03T16:08:31;102300.09;;;23.84;48.52
21109;BME280;10712;52.944;9.098;2022-10-03T16:11:20;102304.94;;;23.80;48.90
21109;BME280;10712;52.944;9.098;2022-10-03T16:16:47;102298.94;;;23.77;49.21
21109;BME280;10712;52.944;9.098;2022-10-03T16:25:17;102296.03;;;23.69;49.31
21109;BME280;10712;52.944;9.098;2022-10-03T16:28:11;102289.97;;;23.65;49.14
21109;BME280;10712;52.944;9.098;2022-10-03T16:30:57;102296.28;;;23.66;49.07
21109;BME280;10712;52.944;9.098;2022-10-03T16:33:34;102298.31;;;23.64;49.05
21109;BME280;10712;52.944;9.098;2022-10-03T16:36:08;102306.72;;;23.61;49.34
21109;BME280;10712;52.944;9.098;2022-10-03T16:38:43;102307.25;;;23.54;49.11
21109;BME280;10712;52.944;9.098;2022-10-03T16:41:23;102310.75;;;23.45;49.11
21109;BME280;10712;52.944;9.098;2022-10-03T16:43:59;102306.31;;;23.44;49.16
21109;BME280;10712;52.944;9.098;2022-10-03T16:46:37;102307.72;;;23.39;49.33
21109;BME280;10712;52.944;9.098;2022-10-03T16:49:40;102313.28;;;23.37;49.31
21109;BME280;10712;52.944;9.098;2022-10-03T16:52:36;102307.34;;;23.43;49.02
21109;BME280;10712;52.944;9.098;2022-10-03T16:55:14;102313.03;;;23.40;49.04
21109;BME280;10712;52.944;9.098;2022-10-03T16:57:46;102316.75;;;23.39;49.17
21109;BME280;10712;52.944;9.098;2022-10-03T17:00:29;102310.56;;;23.37;48.85
21109;BME280;10712;52.944;9.098;2022-10-03T17:02:57;102315.28;;;23.35;49.20
21109;BME280;10712;52.944;9.098;2022-10-03T17:05:24;102304.41;;;23.35;49.35
21109;BME280;10712;52.944;9.098;2022-10-03T17:07:56;102304.41;;;23.35;49.04
21109;BME280;10712;52.944;9.098;2022-10-03T17:10:35;102309.84;;;23.35;48.90
21109;BME280;10712;52.944;9.098;2022-10-03T17:13:17;102304.97;;;23.29;49.16
21109;BME280;10712;52.944;9.098;2022-10-03T17:16:02;102303.22;;;23.28;49.25
21109;BME280;10712;52.944;9.098;2022-10-03T17:18:43;102308.66;;;23.28;49.08
21109;BME280;10712;52.944;9.098;2022-10-03T17:21:30;102312.38;;;23.27;49.47
21109;BME280;10712;52.944;9.098;2022-10-03T17:24:13;102311.75;;;23.24;49.42
21109;BME280;10712;52.944;9.098;2022-10-03T17:26:45;102316.75;;;23.39;49.33
21109;BME280;10712;52.944;9.098;2022-10-03T17:32:24;102317.69;;;23.08;49.78
21109;BME280;10712;52.944;9.098;2022-10-03T17:39:02;102310.78;;;23.04;49.75
21109;BME280;10712;52.944;9.098;2022-10-03T17:42:02;102305.50;;;23.02;49.99
21109;BME280;10712;52.944;9.098;2022-10-03T17:53:37;102316.00;;;22.96;49.86
21109;BME280;10712;52.944;9.098;2022-10-03T17:56:10;102309.00;;;22.93;50.26
21109;BME280;10712;52.944;9.098;2022-10-03T17:58:43;102308.38;;;22.90;50.01
21109;BME280;10712;52.944;9.098;2022-10-03T18:01:16;102313.22;;;22.86;50.12
21109;BME280;10712;52.944;9.098;2022-10-03T18:03:54;102310.91;;;22.82;50.37
21109;BME280;10712;52.944;9.098;2022-10-03T18:06:35;102307.72;;;22.76;50.43
21109;BME280;10712;52.944;9.098;2022-10-03T18:11:42;102307.72;;;22.65;50.57
21109;BME280;10712;52.944;9.098;2022-10-03T18:14:43;102309.47;;;22.55;50.45
21109;BME280;10712;52.944;9.098;2022-10-03T18:17:22;102315.19;;;22.52;50.79
21109;BME280;10712;52.944;9.098;2022-10-03T18:20:19;102313.13;;;22.45;50.85
21109;BME280;10712;52.944;9.098;2022-10-03T18:23:02;102316.22;;;22.40;50.93
21109;BME280;10712;52.944;9.098;2022-10-03T18:25:50;102311.03;;;22.37;50.91
21109;BME280;10712;52.944;9.098;2022-10-03T18:31:26;102307.97;;;22.30;51.30
21109;BME280;10712;52.944;9.098;2022-10-03T18:34:12;102323.16;;;22.22;51.27
21109;BME280;10712;52.944;9.098;2022-10-03T18:36:53;102318.00;;;22.19;51.13
21109;BME280;10712;52.944;9.098;2022-10-03T18:39:32;102316.50;;;22.15;51.01
21109;BME280;10712;52.944;9.098;2022-10-03T18:42:01;102304.19;;;22.11;51.21
21109;BME280;10712;52.944;9.098;2022-10-03T18:44:32;102308.03;;;21.97;51.59
21109;BME280;10712;52.944;9.098;2022-10-03T18:47:16;102307.38;;;21.93;51.31
21109;BME280;10712;52.944;9.098;2022-10-03T18:53:20;102305.19;;;21.76;51.30
21109;BME280;10712;52.944;9.098;2022-10-03T18:56:11;102307.16;;;21.74;51.52
21109;BME280;10712;52.944;9.098;2022-10-03T18:59:21;102290.25;;;21.71;51.62
21109;BME280;10712;52.944;9.098;2022-10-03T19:01:58;102298.25;;;21.72;51.86
21109;BME280;10712;52.944;9.098;2022-10-03T19:04:53;102300.25;;;21.70;52.05
21109;BME280;10712;52.944;9.098;2022-10-03T19:07:26;102296.69;;;21.70;51.97
21109;BME280;10712;52.944;9.098;2022-10-03T19:10:11;102299.03;;;21.63;51.90
21109;BME280;10712;52.944;9.098;2022-10-03T19:12:46;102302.94;;;21.59;51.94
21109;BME280;10712;52.944;9.098;2022-10-03T19:18:27;102300.72;;;21.42;52.50
21109;BME280;10712;52.944;9.098;2022-10-03T19:21:03;102298.88;;;21.42;52.47
21109;BME280;10712;52.944;9.098;2022-10-03T19:23:41;102311.31;;;21.45;52.44
21109;BME280;10712;52.944;9.098;2022-10-03T19:26:29;102304.41;;;21.41;52.48
21109;BME280;10712;52.944;9.098;2022-10-03T19:29:11;102297.28;;;21.40;52.52
21109;BME280;10712;52.944;9.098;2022-10-03T19:31:44;102294.19;;;21.44;52.32
21109;BME280;10712;52.944;9.098;2022-10-03T19:34:40;102298.72;;;21.44;52.39
21109;BME280;10712;52.944;9.098;2022-10-03T19:37:41;102305.03;;;21.44;52.30
21109;BME280;10712;52.944;9.098;2022-10-03T19:46:02;102307.88;;;21.43;52.36
21109;BME280;10712;52.944;9.098;2022-10-03T19:48:41;102313.75;;;21.37;52.29
21109;BME280;10712;52.944;9.098;2022-10-03T19:51:15;102306.63;;;21.36;52.36
21109;BME280;10712;52.944;9.098;2022-10-03T19:53:43;102298.63;;;21.34;52.20
21109;BME280;10712;52.944;9.098;2022-10-03T19:56:14;102303.28;;;21.32;52.38
21109;BME280;10712;52.944;9.098;2022-10-03T19:58:56;102300.19;;;21.26;52.46
21109;BME280;10712;52.944;9.098;2022-10-03T20:01:23;102300.69;;;21.19;52.64
21109;BME280;10712;52.944;9.098;2022-10-03T20:03:55;102305.81;;;21.11;52.52
21109;BME280;10712;52.944;9.098;2022-10-03T20:06:36;102299.13;;;21.04;52.40
21109;BME280;10712;52.944;9.098;2022-10-03T20:09:21;102293.59;;;20.95;52.48
21109;BME280;10712;52.944;9.098;2022-10-03T20:12:05;102301.44;;;20.87;52.58
21109;BME280;10712;52.944;9.098;2022-10-03T20:14:36;102294.66;;;20.81;52.63
21109;BME280;10712;52.944;9.098;2022-10-03T20:17:21;102300.75;;;20.72;52.73
21109;BME280;10712;52.944;9.098;2022-10-03T20:20:05;102299.50;;;20.65;52.81
21109;BME280;10712;52.944;9.098;2022-10-03T20:22:35;102294.56;;;20.59;52.67
21109;BME280;10712;52.944;9.098;2022-10-03T20:25:04;102294.38;;;20.49;52.72
21109;BME280;10712;52.944;9.098;2022-10-03T20:27:44;102288.56;;;20.42;52.80
21109;BME280;10712;52.944;9.098;2022-10-03T20:30:25;102294.44;;;20.36;52.78
21109;BME280;10712;52.944;9.098;2022-10-03T20:32:58;102291.72;;;20.36;52.64
21109;BME280;10712;52.944;9.098;2022-10-03T20:38:26;102300.09;;;20.21;52.90
21109;BME280;10712;52.944;9.098;2022-10-03T20:41:27;102302.63;;;20.11;53.09
21109;BME280;10712;52.944;9.098;2022-10-03T20:44:17;102297.31;;;20.10;53.12
21109;BME280;10712;52.944;9.098;2022-10-03T20:47:08;102299.91;;;20.11;53.26
21109;BME280;10712;52.944;9.098;2022-10-03T20:49:52;102298.19;;;20.10;53.27
21109;BME280;10712;52.944;9.098;2022-10-03T20:52:20;102283.91;;;20.08;53.31
21109;BME280;10712;52.944;9.098;2022-10-03T20:54:53;102293.22;;;20.04;53.19
21109;BME280;10712;52.944;9.098;2022-10-03T20:57:56;102291.94;;;19.97;53.38
21109;BME280;10712;52.944;9.098;2022-10-03T21:00:25;102282.44;;;19.91;53.05
21109;BME280;10712;52.944;9.098;2022-10-03T21:03:06;102291.31;;;19.81;53.56
21109;BME280;10712;52.944;9.098;2022-10-03T21:05:49;102289.59;;;19.80;53.69
21109;BME280;10712;52.944;9.098;2022-10-03T21:08:35;102293.72;;;19.73;53.71
21109;BME280;10712;52.944;9.098;2022-10-03T21:11:21;102291.13;;;19.71;53.61
21109;BME280;10712;52.944;9.098;2022-10-03T21:14:03;102291.34;;;19.68;53.69
21109;BME280;10712;52.944;9.098;2022-10-03T21:16:45;102291.91;;;19.60;53.65
21109;BME280;10712;52.944;9.098;2022-10-03T21:22:01;102292.66;;;19.62;53.73
21109;BME280;10712;52.944;9.098;2022-10-03T21:24:40;102290.47;;;19.80;53.19
21109;BME280;10712;52.944;9.098;2022-10-03T21:27:15;102284.19;;;19.80;52.98
21109;BME280;10712;52.944;9.098;2022-10-03T21:30:18;102299.03;;;19.74;52.76
21109;BME280;10712;52.944;9.098;2022-10-03T21:32:57;102298.59;;;19.67;52.77
21109;BME280;10712;52.944;9.098;2022-10-03T21:35:32;102295.13;;;19.65;52.81
21109;BME280;10712;52.944;9.098;2022-10-03T21:41:11;102286.69;;;19.57;52.80
21109;BME280;10712;52.944;9.098;2022-10-03T21:44:00;102283.03;;;19.58;52.71
21109;BME280;10712;52.944;9.098;2022-10-03T21:46:51;102288.53;;;19.57;52.82
21109;BME280;10712;52.944;9.098;2022-10-03T21:49:52;102289.41;;;19.57;52.99
21109;BME280;10712;52.944;9.098;2022-10-03T21:52:38;102274.91;;;19.58;52.99
21109;BME280;10712;52.944;9.098;2022-10-03T22:04:38;102260.63;;;19.31;53.97
21109;BME280;10712;52.944;9.098;2022-10-03T22:07:34;102260.44;;;19.34;54.14
21109;BME280;10712;52.944;9.098;2022-10-03T22:10:03;102262.91;;;19.37;53.87
21109;BME280;10712;52.944;9.098;2022-10-03T22:12:40;102260.44;;;19.34;53.89
21109;BME280;10712;52.944;9.098;2022-10-03T22:15:23;102257.38;;;19.39;53.80
21109;BME280;10712;52.944;9.098;2022-10-03T22:17:59;102258.25;;;19.39;53.88
21109;BME280;10712;52.944;9.098;2022-10-03T22:20:32;102254.69;;;19.39;53.79
21109;BME280;10712;52.944;9.098;2022-10-03T22:23:44;102249.38;;;19.37;54.01
21109;BME280;10712;52.944;9.098;2022-10-03T22:26:50;102246.47;;;19.40;54.15
21109;BME280;10712;52.944;9.098;2022-10-03T22:29:47;102252.66;;;19.42;54.19
21109;BME280;10712;52.944;9.098;2022-10-03T22:35:19;102251.53;;;19.45;54.38
21109;BME280;10712;52.944;9.098;2022-10-03T22:37:49;102254.19;;;19.46;54.37
21109;BME280;10712;52.944;9.098;2022-10-03T22:40:16;102252.41;;;19.45;54.39
21109;BME280;10712;52.944;9.098;2022-10-03T22:42:48;102250.69;;;19.44;54.55
21109;BME280;10712;52.944;9.098;2022-10-03T22:45:17;102255.22;;;19.44;54.64
21109;BME280;10712;52.944;9.098;2022-10-03T22:47:51;102260.53;;;19.45;54.76
21109;BME280;10712;52.944;9.098;2022-10-03T22:50:25;102261.50;;;19.44;54.75
21109;BME280;10712;52.944;9.098;2022-10-03T22:52:55;102253.97;;;19.49;54.66
21109;BME280;10712;52.944;9.098;2022-10-03T22:55:24;102248.31;;;19.52;54.83
21109;BME280;10712;52.944;9.098;2022-10-03T22:57:52;102261.94;;;19.51;54.73
21109;BME280;10712;52.944;9.098;2022-10-03T23:00:24;102261.06;;;19.50;54.72
21109;BME280;10712;52.944;9.098;2022-10-03T23:03:13;102261.06;;;19.50;54.65
21109;BME280;10712;52.944;9.098;2022-10-03T23:06:10;102248.31;;;19.52;54.70
21109;BME280;10712;52.944;9.098;2022-10-03T23:11:50;102246.59;;;19.51;54.59
21109;BME280;10712;52.944;9.098;2022-10-03T23:14:41;102244.13;;;19.48;54.86
21109;BME280;10712;52.944;9.098;2022-10-03T23:20:17;102243.00;;;19.38;54.64
21109;BME280;10712;52.944;9.098;2022-10-03T23:22:54;102235.78;;;19.39;54.79
21109;BME280;10712;52.944;9.098;2022-10-03T23:25:33;102236.84;;;19.36;54.71
21109;BME280;10712;52.944;9.098;2022-10-03T23:28:17;102235.13;;;19.35;54.73
21109;BME280;10712;52.944;9.098;2022-10-03T23:30:52;102228.44;;;19.41;54.83
21109;BME280;10712;52.944;9.098;2022-10-03T23:36:19;102216.75;;;19.40;54.78
21109;BME280;10712;52.944;9.098;2022-10-03T23:41:27;102213.28;;;19.38;54.69
21109;BME280;10712;52.944;9.098;2022-10-03T23:43:56;102205.28;;;19.37;54.90
21109;BME280;10712;52.944;9.098;2022-10-03T23:46:26;102203.34;;;19.39;54.90
21109;BME280;10712;52.944;9.098;2022-10-03T23:48:57;102204.19;;;19.39;54.90
21109;BME280;10712;52.944;9.098;2022-10-03T23:51:31;102206.13;;;19.37;54.88
21109;BME280;10712;52.944;9.098;2022-10-03T23:54:01;102206.13;;;19.37;55.10
21109;BME280;10712;52.944;9.098;2022-10-03T23:56:42;102211.78;;;19.34;55.16
